iAero B738 at Waterloo on Mar 5th 2022, overran runway on landing

Last Update: March 7, 2022 / 20:31:18 GMT/Zulu time

Bookmark this article
Incident Facts

Date of incident
Mar 5, 2022

Classification
Incident

Flight number
WQ-6851

Aircraft Registration
N624XA

Aircraft Type
Boeing 737-800

ICAO Type Designator
B738

Airport ICAO Code
KALO

An iAero Boeing 737-800, registration N624XA performing flight WQ-6851 from Madison,WI to Waterloo,IA (USA) with 88 people on board, landed on Waterloo's runway 18 at 18:07L (00:007Z Mar 6th) but went past the end of runway during roll out. The passengers were taken to the terminal by two school busses.

The airport reported there was inclement weather at the time of the landing, the aircraft overran the end of the runway. There were no injuries, two school busses took the passengers to the terminal.

The occurrence aircraft was unable to continue its schedule and is still on the ground in Waterloo about 16 hours after landing.

On Mar 7th 2022 the FAA reported: "AIRCRAFT LANDED LONG AND WENT OFF END OF RUNWAY, WATERLOO, IA.", the damage was unknown and the occurrence was rated an incident.



Metars:
KALO 060232Z 10005KT 3/4SM R12/P6000FT BR CLR 08/07 A2947 RMK AO2 T00780067=
KALO 060154Z 12007KT 10SM FEW055 SCT090 11/08 A2946 RMK AO2 LTG DSNT NE-SE RAE46 TSE11 SLP980 P0011 T01060083=
KALO 060138Z 00000KT 7SM VCTS -RA FEW029 BKN050 OVC095 12/09 A2946 RMK AO2 LTG DSNT NE-SE TSE11 PRESFR P0011 T01170089=
KALO 060129Z 23013KT 5SM RA BR FEW030 BKN050 OVC100 11/08 A2954 RMK AO2 LTG DSNT NE-S TSE11 P0008 T01060083=
KALO 060117Z 26005KT 10SM VCTS -RA FEW042 BKN070 OVC100 10/08 A2953 RMK AO2 LTG DSNT NE-S TSE11 PRESRR P0007 T01000078=
KALO 060058Z 14006KT 3SM R12/3500VP6000FT -TSRA BR BKN038 BKN065 OVC080 11/08 A2949 RMK AO2 LTG DSNT ALQDS PRESFR P0005 T01060083=
KALO 060054Z VRB04G16KT 1 3/4SM R12/3500VP6000FT TSRA BR BKN036 BKN065 OVC080 11/08 A2950 RMK AO2 PK WND 27033/0032 WSHFT 0031 LTG DSNT ALQDS RAB25 TSB28 PRESFR SLP993 P0031 T01060083=
KALO 060051Z 1 1/2SM R12/3500VP6000FT +TSRA BKN031 BKN065 OVC080 11/08 A2953 RMK AO2 PK WND 27033/0032 WSHFT 0031 LTG DSNT ALQDS RAB25 TSB28 P0024=
KALO 060039Z 27015G33KT 1 3/4SM R12/5000VP6000FT +TSRA BR SCT029 BKN065 OVC120 11/09 A2953 RMK AO2 PK WND 27033/0032 LTG DSNT ALQDS RAB25 TSB28 P0005 T01110094=
KALO 060034Z 27020G33KT 3SM R12/5000VP6000FT -TSRA BR FEW022 SCT065 BKN080 13/12 A2955 RMK AO2 PK WND 27033/0032 LTG DSNT ALQDS RAB25 TSB28 PRESRR P0000 T01280117=
KALO 060025Z 17007KT 6SM VCTS -RA BR SCT085 BKN110 13/12 A2951 RMK AO2 LTG DSNT SW-N RAB25 P0000 T01330117=
KALO 060003Z 16008KT 4SM BR FEW006 SCT022 13/12 A2951 RMK AO2 LTG DSNT SW AND W T01330117=
KALO 052354Z 17008KT 3SM BR SCT006 BKN022 13/12 A2952 RMK AO2 LTG DSNT SW AND W SLP998 60026 T01330117 10139 20117 58015=
KALO 052346Z 16008KT 2 1/2SM BR SCT006 BKN018 OVC031 13/12 A2952 RMK AO2 LTG DSNT W T01330117=
KALO 052254Z 16008KT 3SM BR FEW004 SCT018 OVC026 14/12 A2954 RMK AO2 LTG DSNT N RAE43 SLP005 P0010 T01390122=
KALO 052247Z 16008KT 2SM R12/6000VP6000FT BR SCT004 BKN018 OVC024 14/12 A2954 RMK AO2 LTG DSNT N RAE43 P0010 T01390122=
KALO 052228Z 17007KT 1SM R12/4000VP6000FT -RA BR BKN004 BKN019 OVC038 13/12 A2954 RMK AO2 LTG DSNT NE CIG 003V008 P0009 T01330122=
KALO 052157Z 14006KT 1SM R12/3000V4500FT RA BR BKN008 BKN014 OVC095 13/12 A2956 RMK AO2 LTG DSNT NE-SE P0001 T01330117=
KALO 052154Z 14005KT 1SM R12/3000V5000FT -RA BR BKN011 BKN050 OVC070 13/12 A2956 RMK AO2 LTG DSNT NE-SE TSB05E20 SLP012 P0012 T01330117=
KALO 052149Z 13004KT 1SM R12/4000VP6000FT -RA BR SCT009 BKN015 OVC095 13/11 A2956 RMK AO2 LTG DSNT NE-SE TSB05E20 P0011=
KALO 052135Z 11007KT 1SM R12/1800V6000FT -RA BR BKN011 BKN046 OVC095 13/12 A2956 RMK AO2 LTG DSNT NE-S TSB05E20 PRESFR P0009 T01280117=
KALO 052120Z 12005KT 1/4SM R12/1200V3000FT -RA FG BKN008 OVC015 12/10 A2958 RMK AO2 LTG DSNT ALQDS TSB05E20 P0005 T01170100=
KALO 052105Z 33003KT 3/4SM R12/3500VP6000FT +TSRA BR BKN006 OVC013 12/11 A2959 RMK AO2 LTG DSNT ALQDS TSB05 CIG 005V010 P0002 T01220106=
Aircraft Registration Data
Registration mark
N624XA
Country of Registration
United States
Date of Registration
Hjnjg Akpmcgpk Subscribe to unlock
Manufacturer
BOEING
Aircraft Model / Type
737-86J
Number of Seats
ICAO Aircraft Type
B738
Year of Manufacture
Serial Number
Aircraft Address / Mode S Code (HEX)
Engine Count
Engine Manufacturer
Engine Model
Engine Type
Pounds of Thrust
Main Owner
Jcl Ahqnlmicecenkqfmmglimmfhemkqnjqkhhg ebglcdkgppkqA lkbfmjbedlflbd dllhfh A Subscribe to unlock
Incident Facts

Date of incident
Mar 5, 2022

Classification
Incident

Flight number
WQ-6851

Aircraft Registration
N624XA

Aircraft Type
Boeing 737-800

ICAO Type Designator
B738

Airport ICAO Code
KALO

This article is published under license from Avherald.com. © of text by Avherald.com.
Article source

You can read 2 more free articles without a subscription.

Subscribe now and continue reading without any limits!

Are you a subscriber? Login
Subscribe

Read unlimited articles and receive our daily update briefing. Gain better insights into what is happening in commercial aviation safety.

Free newsletter

Want to know more and stay ahead? Get our free weekly newsletter and join 5384 existing subscribers.

By subscribing, you accept our terms and conditions and confirm that you've read our privacy policy.

Send tip

Support AeroInside by sending a small tip amount.

Related articles

Newest articles

Subscribe today

Are you researching aviation incidents? Get access to AeroInside Insights, unlimited read access and receive the daily newsletter.

Pick your plan and subscribe

Partner

Blockaviation logo

A new way to document and demonstrate airworthiness compliance and aircraft value. Find out more.

Virtual Speech logo

ELITE Simulation Solutions is a leading global provider of Flight Simulation Training Devices, IFR training software as well as flight controls and related services. Find out more.

Get updates

Never miss an article from AeroInside. Subscribe to our free weekly newsletter and join 5384 existing subscribers.

By subscribing, you accept our terms and conditions and that you've read our privacy policy.

AeroInside Blog
Popular aircraft
Airbus A320
Boeing 737-800
Boeing 737-800 MAX
Popular airlines
American Airlines
United
Delta
Air Canada
Lufthansa
British Airways